sensor_id;sensor_type;location;lat;lon;timestamp;P1;durP1;ratioP1;P2;durP2;ratioP2
36663;SDS011;53333;51.976;20.144;2022-08-19T00:00:46;17.30;;;11.20;;
36663;SDS011;53333;51.976;20.144;2022-08-19T00:03:27;16.00;;;12.30;;
36663;SDS011;53333;51.976;20.144;2022-08-19T00:06:00;16.23;;;12.48;;
36663;SDS011;53333;51.976;20.144;2022-08-19T00:08:37;16.58;;;11.93;;
36663;SDS011;53333;51.976;20.144;2022-08-19T00:11:13;15.02;;;12.77;;
36663;SDS011;53333;51.976;20.144;2022-08-19T00:13:57;20.77;;;12.40;;
36663;SDS011;53333;51.976;20.144;2022-08-19T00:16:34;20.73;;;12.75;;
36663;SDS011;53333;51.976;20.144;2022-08-19T00:19:07;18.50;;;12.70;;
36663;SDS011;53333;51.976;20.144;2022-08-19T00:21:44;15.80;;;11.93;;
36663;SDS011;53333;51.976;20.144;2022-08-19T00:24:20;16.23;;;12.07;;
36663;SDS011;53333;51.976;20.144;2022-08-19T00:26:54;13.30;;;11.80;;
36663;SDS011;53333;51.976;20.144;2022-08-19T00:29:50;17.83;;;12.25;;
36663;SDS011;53333;51.976;20.144;2022-08-19T00:32:29;20.52;;;13.48;;
36663;SDS011;53333;51.976;20.144;2022-08-19T00:35:05;30.15;;;19.00;;
36663;SDS011;53333;51.976;20.144;2022-08-19T00:37:42;33.45;;;19.98;;
36663;SDS011;53333;51.976;20.144;2022-08-19T00:40:16;37.45;;;21.98;;
36663;SDS011;53333;51.976;20.144;2022-08-19T00:42:51;33.50;;;20.38;;
36663;SDS011;53333;51.976;20.144;2022-08-19T00:45:27;34.90;;;19.25;;
36663;SDS011;53333;51.976;20.144;2022-08-19T00:48:07;32.75;;;17.60;;
36663;SDS011;53333;51.976;20.144;2022-08-19T00:50:46;25.20;;;15.48;;
36663;SDS011;53333;51.976;20.144;2022-08-19T00:53:23;18.13;;;13.75;;
36663;SDS011;53333;51.976;20.144;2022-08-19T00:56:05;22.38;;;12.50;;
36663;SDS011;53333;51.976;20.144;2022-08-19T00:58:40;19.40;;;13.48;;
36663;SDS011;53333;51.976;20.144;2022-08-19T01:01:15;15.88;;;12.35;;
36663;SDS011;53333;51.976;20.144;2022-08-19T01:03:49;13.60;;;11.85;;
36663;SDS011;53333;51.976;20.144;2022-08-19T01:06:29;18.02;;;13.52;;
36663;SDS011;53333;51.976;20.144;2022-08-19T01:09:04;18.15;;;13.23;;
36663;SDS011;53333;51.976;20.144;2022-08-19T01:11:39;22.98;;;13.70;;
36663;SDS011;53333;51.976;20.144;2022-08-19T01:14:17;18.23;;;13.35;;
36663;SDS011;53333;51.976;20.144;2022-08-19T01:16:53;22.88;;;13.75;;
36663;SDS011;53333;51.976;20.144;2022-08-19T01:19:29;18.63;;;14.50;;
36663;SDS011;53333;51.976;20.144;2022-08-19T01:22:16;22.15;;;14.38;;
36663;SDS011;53333;51.976;20.144;2022-08-19T01:25:05;20.88;;;14.55;;
36663;SDS011;53333;51.976;20.144;2022-08-19T01:27:47;21.77;;;15.07;;
36663;SDS011;53333;51.976;20.144;2022-08-19T01:30:25;25.50;;;16.40;;
36663;SDS011;53333;51.976;20.144;2022-08-19T01:33:05;25.25;;;15.40;;
36663;SDS011;53333;51.976;20.144;2022-08-19T01:35:38;24.63;;;15.35;;
36663;SDS011;53333;51.976;20.144;2022-08-19T01:38:20;24.15;;;13.88;;
36663;SDS011;53333;51.976;20.144;2022-08-19T01:40:58;21.23;;;14.68;;
36663;SDS011;53333;51.976;20.144;2022-08-19T01:43:40;22.48;;;14.38;;
36663;SDS011;53333;51.976;20.144;2022-08-19T01:46:33;17.10;;;12.95;;
36663;SDS011;53333;51.976;20.144;2022-08-19T01:49:10;20.58;;;13.65;;
36663;SDS011;53333;51.976;20.144;2022-08-19T01:51:44;20.55;;;13.27;;
36663;SDS011;53333;51.976;20.144;2022-08-19T01:54:18;17.38;;;13.18;;
36663;SDS011;53333;51.976;20.144;2022-08-19T01:57:04;16.42;;;12.77;;
36663;SDS011;53333;51.976;20.144;2022-08-19T01:59:41;18.17;;;13.43;;
36663;SDS011;53333;51.976;20.144;2022-08-19T02:02:20;20.67;;;14.02;;
36663;SDS011;53333;51.976;20.144;2022-08-19T02:04:54;18.35;;;13.73;;
36663;SDS011;53333;51.976;20.144;2022-08-19T02:07:28;19.35;;;13.35;;
36663;SDS011;53333;51.976;20.144;2022-08-19T02:10:03;20.65;;;13.98;;
36663;SDS011;53333;51.976;20.144;2022-08-19T02:12:44;18.73;;;13.20;;
36663;SDS011;53333;51.976;20.144;2022-08-19T02:15:18;18.75;;;13.75;;
36663;SDS011;53333;51.976;20.144;2022-08-19T02:17:53;19.08;;;13.40;;
36663;SDS011;53333;51.976;20.144;2022-08-19T02:20:27;17.23;;;13.32;;
36663;SDS011;53333;51.976;20.144;2022-08-19T02:23:00;18.17;;;13.48;;
36663;SDS011;53333;51.976;20.144;2022-08-19T02:25:34;22.48;;;13.27;;
36663;SDS011;53333;51.976;20.144;2022-08-19T02:28:09;20.88;;;12.80;;
36663;SDS011;53333;51.976;20.144;2022-08-19T02:30:48;18.63;;;13.13;;
36663;SDS011;53333;51.976;20.144;2022-08-19T02:33:22;18.55;;;13.57;;
36663;SDS011;53333;51.976;20.144;2022-08-19T02:35:55;17.92;;;13.18;;
36663;SDS011;53333;51.976;20.144;2022-08-19T02:38:29;19.25;;;13.40;;
36663;SDS011;53333;51.976;20.144;2022-08-19T02:41:03;15.02;;;13.43;;
36663;SDS011;53333;51.976;20.144;2022-08-19T02:43:40;18.92;;;13.43;;
36663;SDS011;53333;51.976;20.144;2022-08-19T02:46:34;17.02;;;13.68;;
36663;SDS011;53333;51.976;20.144;2022-08-19T02:49:08;21.27;;;14.43;;
36663;SDS011;53333;51.976;20.144;2022-08-19T02:51:42;17.42;;;13.25;;
36663;SDS011;53333;51.976;20.144;2022-08-19T02:54:17;21.88;;;13.18;;
36663;SDS011;53333;51.976;20.144;2022-08-19T02:56:51;13.68;;;12.25;;
36663;SDS011;53333;51.976;20.144;2022-08-19T02:59:27;17.90;;;12.77;;
36663;SDS011;53333;51.976;20.144;2022-08-19T03:02:02;18.17;;;13.25;;
36663;SDS011;53333;51.976;20.144;2022-08-19T03:04:36;18.63;;;13.65;;
36663;SDS011;53333;51.976;20.144;2022-08-19T03:07:12;16.17;;;13.05;;
36663;SDS011;53333;51.976;20.144;2022-08-19T03:09:46;17.55;;;14.25;;
36663;SDS011;53333;51.976;20.144;2022-08-19T03:12:20;16.98;;;13.23;;
36663;SDS011;53333;51.976;20.144;2022-08-19T03:14:55;17.10;;;13.05;;
36663;SDS011;53333;51.976;20.144;2022-08-19T03:17:28;16.48;;;14.20;;
36663;SDS011;53333;51.976;20.144;2022-08-19T03:20:02;21.58;;;14.13;;
36663;SDS011;53333;51.976;20.144;2022-08-19T03:22:37;19.70;;;13.90;;
36663;SDS011;53333;51.976;20.144;2022-08-19T03:25:10;17.83;;;13.32;;
36663;SDS011;53333;51.976;20.144;2022-08-19T03:27:44;21.60;;;13.90;;
36663;SDS011;53333;51.976;20.144;2022-08-19T03:30:24;17.90;;;13.10;;
36663;SDS011;53333;51.976;20.144;2022-08-19T03:32:58;21.45;;;14.77;;
36663;SDS011;53333;51.976;20.144;2022-08-19T03:35:31;22.00;;;14.25;;
36663;SDS011;53333;51.976;20.144;2022-08-19T03:38:08;19.13;;;13.73;;
36663;SDS011;53333;51.976;20.144;2022-08-19T03:40:41;16.52;;;13.68;;
36663;SDS011;53333;51.976;20.144;2022-08-19T03:43:15;18.02;;;13.18;;
36663;SDS011;53333;51.976;20.144;2022-08-19T03:46:00;23.17;;;13.85;;
36663;SDS011;53333;51.976;20.144;2022-08-19T03:48:36;19.80;;;13.25;;
36663;SDS011;53333;51.976;20.144;2022-08-19T03:51:15;18.60;;;13.07;;
36663;SDS011;53333;51.976;20.144;2022-08-19T03:54:01;16.10;;;13.45;;
36663;SDS011;53333;51.976;20.144;2022-08-19T03:56:37;18.05;;;13.52;;
36663;SDS011;53333;51.976;20.144;2022-08-19T03:59:15;17.10;;;12.60;;
36663;SDS011;53333;51.976;20.144;2022-08-19T04:01:52;16.77;;;13.02;;
36663;SDS011;53333;51.976;20.144;2022-08-19T04:04:26;17.98;;;13.93;;
36663;SDS011;53333;51.976;20.144;2022-08-19T04:07:02;20.65;;;13.00;;
36663;SDS011;53333;51.976;20.144;2022-08-19T04:09:36;16.77;;;12.52;;
36663;SDS011;53333;51.976;20.144;2022-08-19T04:12:10;19.73;;;12.68;;
36663;SDS011;53333;51.976;20.144;2022-08-19T04:14:44;15.85;;;13.13;;
36663;SDS011;53333;51.976;20.144;2022-08-19T04:17:19;21.88;;;13.48;;
36663;SDS011;53333;51.976;20.144;2022-08-19T04:19:53;19.90;;;13.57;;
36663;SDS011;53333;51.976;20.144;2022-08-19T04:22:26;20.55;;;13.75;;
36663;SDS011;53333;51.976;20.144;2022-08-19T04:25:00;20.77;;;14.43;;
36663;SDS011;53333;51.976;20.144;2022-08-19T04:27:34;16.52;;;13.30;;
36663;SDS011;53333;51.976;20.144;2022-08-19T04:30:08;23.67;;;14.23;;
36663;SDS011;53333;51.976;20.144;2022-08-19T04:32:44;18.52;;;12.98;;
36663;SDS011;53333;51.976;20.144;2022-08-19T04:35:18;19.25;;;12.77;;
36663;SDS011;53333;51.976;20.144;2022-08-19T04:37:55;18.42;;;13.07;;
36663;SDS011;53333;51.976;20.144;2022-08-19T04:40:29;19.50;;;12.45;;
36663;SDS011;53333;51.976;20.144;2022-08-19T04:43:20;16.52;;;12.68;;
36663;SDS011;53333;51.976;20.144;2022-08-19T04:45:55;17.67;;;12.80;;
36663;SDS011;53333;51.976;20.144;2022-08-19T04:48:33;21.52;;;13.18;;
36663;SDS011;53333;51.976;20.144;2022-08-19T04:51:14;18.30;;;12.98;;
36663;SDS011;53333;51.976;20.144;2022-08-19T04:53:48;17.40;;;13.23;;
36663;SDS011;53333;51.976;20.144;2022-08-19T04:56:23;16.00;;;13.43;;
36663;SDS011;53333;51.976;20.144;2022-08-19T04:58:58;34.75;;;26.15;;
36663;SDS011;53333;51.976;20.144;2022-08-19T05:01:35;23.00;;;13.75;;
36663;SDS011;53333;51.976;20.144;2022-08-19T05:04:10;14.35;;;11.75;;
36663;SDS011;53333;51.976;20.144;2022-08-19T05:06:44;17.30;;;12.75;;
36663;SDS011;53333;51.976;20.144;2022-08-19T05:09:18;21.55;;;12.23;;
36663;SDS011;53333;51.976;20.144;2022-08-19T05:11:53;20.27;;;12.82;;
36663;SDS011;53333;51.976;20.144;2022-08-19T05:14:26;18.75;;;12.25;;
36663;SDS011;53333;51.976;20.144;2022-08-19T05:17:00;15.35;;;12.45;;
36663;SDS011;53333;51.976;20.144;2022-08-19T05:22:46;16.77;;;12.55;;
36663;SDS011;53333;51.976;20.144;2022-08-19T05:25:20;15.73;;;12.20;;
36663;SDS011;53333;51.976;20.144;2022-08-19T05:27:56;15.85;;;12.40;;
36663;SDS011;53333;51.976;20.144;2022-08-19T05:30:30;18.95;;;11.88;;
36663;SDS011;53333;51.976;20.144;2022-08-19T05:33:18;19.95;;;12.60;;
36663;SDS011;53333;51.976;20.144;2022-08-19T05:35:53;16.60;;;11.95;;
36663;SDS011;53333;51.976;20.144;2022-08-19T05:38:27;17.35;;;11.98;;
36663;SDS011;53333;51.976;20.144;2022-08-19T05:41:05;15.10;;;10.95;;
36663;SDS011;53333;51.976;20.144;2022-08-19T05:43:40;14.45;;;11.55;;
36663;SDS011;53333;51.976;20.144;2022-08-19T05:46:16;18.42;;;10.90;;
36663;SDS011;53333;51.976;20.144;2022-08-19T05:48:58;15.30;;;11.18;;
36663;SDS011;53333;51.976;20.144;2022-08-19T05:51:34;24.75;;;11.68;;
36663;SDS011;53333;51.976;20.144;2022-08-19T05:54:09;16.38;;;11.55;;
36663;SDS011;53333;51.976;20.144;2022-08-19T05:56:45;15.85;;;10.57;;
36663;SDS011;53333;51.976;20.144;2022-08-19T05:59:20;15.40;;;10.73;;
36663;SDS011;53333;51.976;20.144;2022-08-19T06:01:55;16.13;;;11.35;;
36663;SDS011;53333;51.976;20.144;2022-08-19T06:04:29;15.20;;;10.30;;
36663;SDS011;53333;51.976;20.144;2022-08-19T06:07:04;13.98;;;10.27;;
36663;SDS011;53333;51.976;20.144;2022-08-19T06:09:51;13.68;;;10.23;;
36663;SDS011;53333;51.976;20.144;2022-08-19T06:12:31;12.25;;;9.68;;
36663;SDS011;53333;51.976;20.144;2022-08-19T06:15:07;15.52;;;10.18;;
36663;SDS011;53333;51.976;20.144;2022-08-19T06:17:43;14.98;;;10.35;;
36663;SDS011;53333;51.976;20.144;2022-08-19T06:20:17;12.20;;;9.73;;
36663;SDS011;53333;51.976;20.144;2022-08-19T06:23:12;18.48;;;11.35;;
36663;SDS011;53333;51.976;20.144;2022-08-19T06:25:47;15.20;;;9.82;;
36663;SDS011;53333;51.976;20.144;2022-08-19T06:28:21;12.75;;;9.70;;
36663;SDS011;53333;51.976;20.144;2022-08-19T06:30:55;14.77;;;9.82;;
36663;SDS011;53333;51.976;20.144;2022-08-19T06:33:28;15.80;;;10.05;;
36663;SDS011;53333;51.976;20.144;2022-08-19T06:36:02;14.82;;;9.85;;
36663;SDS011;53333;51.976;20.144;2022-08-19T06:38:38;12.90;;;10.10;;
36663;SDS011;53333;51.976;20.144;2022-08-19T06:41:12;13.77;;;9.85;;
36663;SDS011;53333;51.976;20.144;2022-08-19T06:43:45;18.10;;;10.10;;
36663;SDS011;53333;51.976;20.144;2022-08-19T06:46:24;18.88;;;9.95;;
36663;SDS011;53333;51.976;20.144;2022-08-19T06:48:59;12.93;;;9.93;;
36663;SDS011;53333;51.976;20.144;2022-08-19T06:51:33;12.02;;;9.10;;
36663;SDS011;53333;51.976;20.144;2022-08-19T06:54:14;14.50;;;9.93;;
36663;SDS011;53333;51.976;20.144;2022-08-19T06:56:51;12.38;;;9.88;;
36663;SDS011;53333;51.976;20.144;2022-08-19T06:59:24;12.55;;;9.52;;
36663;SDS011;53333;51.976;20.144;2022-08-19T07:02:00;11.93;;;9.38;;
36663;SDS011;53333;51.976;20.144;2022-08-19T07:04:37;13.27;;;9.75;;
36663;SDS011;53333;51.976;20.144;2022-08-19T07:07:13;13.93;;;9.85;;
36663;SDS011;53333;51.976;20.144;2022-08-19T07:09:53;11.20;;;9.55;;
36663;SDS011;53333;51.976;20.144;2022-08-19T07:12:32;17.95;;;10.63;;
36663;SDS011;53333;51.976;20.144;2022-08-19T07:15:09;14.50;;;9.02;;
36663;SDS011;53333;51.976;20.144;2022-08-19T07:17:43;10.93;;;9.13;;
36663;SDS011;53333;51.976;20.144;2022-08-19T07:20:23;13.30;;;9.52;;
36663;SDS011;53333;51.976;20.144;2022-08-19T07:22:59;14.65;;;9.30;;
36663;SDS011;53333;51.976;20.144;2022-08-19T07:25:39;13.93;;;8.80;;
36663;SDS011;53333;51.976;20.144;2022-08-19T07:28:13;13.18;;;9.02;;
36663;SDS011;53333;51.976;20.144;2022-08-19T07:30:55;10.77;;;8.43;;
36663;SDS011;53333;51.976;20.144;2022-08-19T07:33:28;12.80;;;10.10;;
36663;SDS011;53333;51.976;20.144;2022-08-19T07:36:05;14.27;;;9.55;;
36663;SDS011;53333;51.976;20.144;2022-08-19T07:38:42;13.07;;;8.50;;
36663;SDS011;53333;51.976;20.144;2022-08-19T07:41:21;10.73;;;9.13;;
36663;SDS011;53333;51.976;20.144;2022-08-19T07:43:57;13.25;;;9.18;;
36663;SDS011;53333;51.976;20.144;2022-08-19T07:46:36;16.42;;;8.45;;
36663;SDS011;53333;51.976;20.144;2022-08-19T07:49:11;15.20;;;8.82;;
36663;SDS011;53333;51.976;20.144;2022-08-19T07:51:50;12.30;;;8.15;;
36663;SDS011;53333;51.976;20.144;2022-08-19T07:54:26;9.98;;;8.15;;
36663;SDS011;53333;51.976;20.144;2022-08-19T07:57:03;15.10;;;8.43;;
36663;SDS011;53333;51.976;20.144;2022-08-19T07:59:37;8.45;;;7.40;;
36663;SDS011;53333;51.976;20.144;2022-08-19T08:02:11;11.63;;;7.95;;
36663;SDS011;53333;51.976;20.144;2022-08-19T08:04:45;11.40;;;8.13;;
36663;SDS011;53333;51.976;20.144;2022-08-19T08:07:38;12.85;;;7.47;;
36663;SDS011;53333;51.976;20.144;2022-08-19T08:10:28;10.45;;;8.48;;
36663;SDS011;53333;51.976;20.144;2022-08-19T08:13:05;8.55;;;7.28;;
36663;SDS011;53333;51.976;20.144;2022-08-19T08:15:41;12.77;;;7.45;;
36663;SDS011;53333;51.976;20.144;2022-08-19T08:18:16;12.98;;;8.32;;
36663;SDS011;53333;51.976;20.144;2022-08-19T08:20:50;8.93;;;7.18;;
36663;SDS011;53333;51.976;20.144;2022-08-19T08:23:24;11.48;;;7.03;;
36663;SDS011;53333;51.976;20.144;2022-08-19T08:25:58;12.85;;;7.57;;
36663;SDS011;53333;51.976;20.144;2022-08-19T08:28:33;9.55;;;7.43;;
36663;SDS011;53333;51.976;20.144;2022-08-19T08:31:09;13.98;;;7.88;;
36663;SDS011;53333;51.976;20.144;2022-08-19T08:33:42;11.20;;;6.65;;
36663;SDS011;53333;51.976;20.144;2022-08-19T08:36:16;13.13;;;7.50;;
36663;SDS011;53333;51.976;20.144;2022-08-19T08:38:50;8.52;;;6.70;;
36663;SDS011;53333;51.976;20.144;2022-08-19T08:41:31;14.65;;;7.70;;
36663;SDS011;53333;51.976;20.144;2022-08-19T08:44:17;8.93;;;6.65;;
36663;SDS011;53333;51.976;20.144;2022-08-19T08:46:55;9.15;;;6.85;;
36663;SDS011;53333;51.976;20.144;2022-08-19T08:49:33;11.23;;;6.85;;
36663;SDS011;53333;51.976;20.144;2022-08-19T08:52:15;10.20;;;6.70;;
36663;SDS011;53333;51.976;20.144;2022-08-19T08:54:55;8.50;;;6.68;;
36663;SDS011;53333;51.976;20.144;2022-08-19T08:57:34;9.35;;;7.05;;
36663;SDS011;53333;51.976;20.144;2022-08-19T09:00:15;7.68;;;6.88;;
36663;SDS011;53333;51.976;20.144;2022-08-19T09:02:52;12.38;;;7.63;;
36663;SDS011;53333;51.976;20.144;2022-08-19T09:05:30;12.85;;;7.75;;
36663;SDS011;53333;51.976;20.144;2022-08-19T09:08:28;9.68;;;7.25;;
36663;SDS011;53333;51.976;20.144;2022-08-19T09:11:15;8.13;;;6.70;;
36663;SDS011;53333;51.976;20.144;2022-08-19T09:14:18;8.30;;;6.75;;
36663;SDS011;53333;51.976;20.144;2022-08-19T09:17:23;9.40;;;6.50;;
36663;SDS011;53333;51.976;20.144;2022-08-19T09:20:04;8.32;;;6.32;;
36663;SDS011;53333;51.976;20.144;2022-08-19T09:22:47;11.25;;;6.30;;
36663;SDS011;53333;51.976;20.144;2022-08-19T09:25:21;13.10;;;7.25;;
36663;SDS011;53333;51.976;20.144;2022-08-19T09:28:00;11.68;;;6.68;;
36663;SDS011;53333;51.976;20.144;2022-08-19T09:30:43;9.85;;;6.60;;
36663;SDS011;53333;51.976;20.144;2022-08-19T09:33:18;9.32;;;6.78;;
36663;SDS011;53333;51.976;20.144;2022-08-19T09:36:00;7.10;;;5.82;;
36663;SDS011;53333;51.976;20.144;2022-08-19T09:38:39;11.52;;;7.18;;
36663;SDS011;53333;51.976;20.144;2022-08-19T09:41:15;7.80;;;5.22;;
36663;SDS011;53333;51.976;20.144;2022-08-19T09:43:51;6.93;;;5.35;;
36663;SDS011;53333;51.976;20.144;2022-08-19T09:46:28;7.43;;;5.85;;
36663;SDS011;53333;51.976;20.144;2022-08-19T09:49:09;8.38;;;5.80;;
36663;SDS011;53333;51.976;20.144;2022-08-19T09:51:44;10.25;;;7.43;;
36663;SDS011;53333;51.976;20.144;2022-08-19T09:54:27;8.57;;;5.85;;
36663;SDS011;53333;51.976;20.144;2022-08-19T09:57:01;9.90;;;6.80;;
36663;SDS011;53333;51.976;20.144;2022-08-19T09:59:38;8.23;;;6.15;;
36663;SDS011;53333;51.976;20.144;2022-08-19T10:02:15;7.60;;;6.88;;
36663;SDS011;53333;51.976;20.144;2022-08-19T10:04:54;10.88;;;6.70;;
36663;SDS011;53333;51.976;20.144;2022-08-19T10:07:53;9.07;;;7.80;;
36663;SDS011;53333;51.976;20.144;2022-08-19T10:10:27;16.92;;;7.38;;
36663;SDS011;53333;51.976;20.144;2022-08-19T10:13:04;7.43;;;6.53;;
36663;SDS011;53333;51.976;20.144;2022-08-19T10:15:38;9.70;;;7.05;;
36663;SDS011;53333;51.976;20.144;2022-08-19T10:18:20;11.38;;;7.55;;
36663;SDS011;53333;51.976;20.144;2022-08-19T10:21:03;8.57;;;6.50;;
36663;SDS011;53333;51.976;20.144;2022-08-19T10:23:43;8.65;;;5.82;;
36663;SDS011;53333;51.976;20.144;2022-08-19T10:26:18;10.45;;;6.35;;
36663;SDS011;53333;51.976;20.144;2022-08-19T10:28:57;8.85;;;6.60;;
36663;SDS011;53333;51.976;20.144;2022-08-19T10:31:31;10.18;;;5.65;;
36663;SDS011;53333;51.976;20.144;2022-08-19T10:34:27;7.28;;;6.20;;
36663;SDS011;53333;51.976;20.144;2022-08-19T10:37:04;7.65;;;5.70;;
36663;SDS011;53333;51.976;20.144;2022-08-19T10:39:41;7.55;;;6.18;;
36663;SDS011;53333;51.976;20.144;2022-08-19T10:42:15;6.25;;;5.65;;
36663;SDS011;53333;51.976;20.144;2022-08-19T10:44:50;7.10;;;6.05;;
36663;SDS011;53333;51.976;20.144;2022-08-19T10:47:24;9.57;;;5.78;;
36663;SDS011;53333;51.976;20.144;2022-08-19T10:50:02;7.22;;;6.07;;
36663;SDS011;53333;51.976;20.144;2022-08-19T10:53:03;6.68;;;5.75;;
36663;SDS011;53333;51.976;20.144;2022-08-19T10:55:40;7.83;;;5.70;;
36663;SDS011;53333;51.976;20.144;2022-08-19T10:58:31;7.50;;;5.57;;
36663;SDS011;53333;51.976;20.144;2022-08-19T11:01:05;10.23;;;5.63;;
36663;SDS011;53333;51.976;20.144;2022-08-19T11:03:39;6.32;;;5.70;;
36663;SDS011;53333;51.976;20.144;2022-08-19T11:06:12;6.63;;;5.65;;
36663;SDS011;53333;51.976;20.144;2022-08-19T11:08:47;14.43;;;6.80;;
36663;SDS011;53333;51.976;20.144;2022-08-19T11:11:21;8.15;;;5.72;;
36663;SDS011;53333;51.976;20.144;2022-08-19T11:13:55;7.75;;;6.22;;
36663;SDS011;53333;51.976;20.144;2022-08-19T11:16:29;7.30;;;5.55;;
36663;SDS011;53333;51.976;20.144;2022-08-19T11:19:03;6.35;;;5.22;;
36663;SDS011;53333;51.976;20.144;2022-08-19T11:21:38;8.32;;;5.63;;
36663;SDS011;53333;51.976;20.144;2022-08-19T11:24:15;12.30;;;6.18;;
36663;SDS011;53333;51.976;20.144;2022-08-19T11:26:52;7.75;;;6.80;;
36663;SDS011;53333;51.976;20.144;2022-08-19T11:29:31;8.02;;;5.80;;
36663;SDS011;53333;51.976;20.144;2022-08-19T11:32:07;8.05;;;7.00;;
36663;SDS011;53333;51.976;20.144;2022-08-19T11:34:42;8.40;;;6.45;;
36663;SDS011;53333;51.976;20.144;2022-08-19T11:37:16;11.90;;;6.80;;
36663;SDS011;53333;51.976;20.144;2022-08-19T11:39:51;11.07;;;6.28;;
36663;SDS011;53333;51.976;20.144;2022-08-19T11:42:25;12.43;;;6.82;;
36663;SDS011;53333;51.976;20.144;2022-08-19T11:45:15;12.07;;;7.55;;
36663;SDS011;53333;51.976;20.144;2022-08-19T11:47:49;7.60;;;6.68;;
36663;SDS011;53333;51.976;20.144;2022-08-19T11:50:23;14.65;;;7.35;;
36663;SDS011;53333;51.976;20.144;2022-08-19T11:52:57;14.70;;;7.43;;
36663;SDS011;53333;51.976;20.144;2022-08-19T11:55:33;11.25;;;7.38;;
36663;SDS011;53333;51.976;20.144;2022-08-19T11:58:15;9.20;;;6.53;;
36663;SDS011;53333;51.976;20.144;2022-08-19T12:00:50;10.30;;;7.20;;
36663;SDS011;53333;51.976;20.144;2022-08-19T12:03:24;8.38;;;6.30;;
36663;SDS011;53333;51.976;20.144;2022-08-19T12:05:58;8.60;;;6.97;;
36663;SDS011;53333;51.976;20.144;2022-08-19T12:08:31;9.57;;;6.85;;
36663;SDS011;53333;51.976;20.144;2022-08-19T12:11:07;10.10;;;6.38;;
36663;SDS011;53333;51.976;20.144;2022-08-19T12:13:41;7.45;;;6.63;;
36663;SDS011;53333;51.976;20.144;2022-08-19T12:16:16;9.45;;;7.00;;
36663;SDS011;53333;51.976;20.144;2022-08-19T12:18:52;10.35;;;7.68;;
36663;SDS011;53333;51.976;20.144;2022-08-19T12:21:27;7.38;;;6.35;;
36663;SDS011;53333;51.976;20.144;2022-08-19T12:24:02;8.85;;;7.60;;
36663;SDS011;53333;51.976;20.144;2022-08-19T12:26:39;9.55;;;6.88;;
36663;SDS011;53333;51.976;20.144;2022-08-19T12:29:24;7.20;;;6.32;;
36663;SDS011;53333;51.976;20.144;2022-08-19T12:32:01;10.02;;;6.53;;
36663;SDS011;53333;51.976;20.144;2022-08-19T12:34:35;10.95;;;6.72;;
36663;SDS011;53333;51.976;20.144;2022-08-19T12:37:10;10.05;;;7.28;;
36663;SDS011;53333;51.976;20.144;2022-08-19T12:39:43;9.95;;;6.90;;
36663;SDS011;53333;51.976;20.144;2022-08-19T12:42:19;8.00;;;7.18;;
36663;SDS011;53333;51.976;20.144;2022-08-19T12:44:54;7.65;;;6.93;;
36663;SDS011;53333;51.976;20.144;2022-08-19T12:47:27;7.15;;;6.00;;
36663;SDS011;53333;51.976;20.144;2022-08-19T12:50:04;8.43;;;6.50;;
36663;SDS011;53333;51.976;20.144;2022-08-19T12:52:42;11.10;;;7.25;;
36663;SDS011;53333;51.976;20.144;2022-08-19T12:55:25;7.75;;;6.88;;
36663;SDS011;53333;51.976;20.144;2022-08-19T12:58:01;7.15;;;6.45;;
36663;SDS011;53333;51.976;20.144;2022-08-19T13:00:35;10.00;;;6.57;;
36663;SDS011;53333;51.976;20.144;2022-08-19T13:03:08;10.95;;;6.68;;
36663;SDS011;53333;51.976;20.144;2022-08-19T13:05:42;9.43;;;6.72;;
36663;SDS011;53333;51.976;20.144;2022-08-19T13:08:16;13.07;;;7.93;;
36663;SDS011;53333;51.976;20.144;2022-08-19T13:10:49;9.75;;;7.72;;
36663;SDS011;53333;51.976;20.144;2022-08-19T13:13:25;9.48;;;6.72;;
36663;SDS011;53333;51.976;20.144;2022-08-19T13:15:59;9.57;;;7.35;;
36663;SDS011;53333;51.976;20.144;2022-08-19T13:18:35;8.43;;;7.53;;
36663;SDS011;53333;51.976;20.144;2022-08-19T13:21:09;12.52;;;6.55;;
36663;SDS011;53333;51.976;20.144;2022-08-19T13:23:44;9.05;;;6.60;;
36663;SDS011;53333;51.976;20.144;2022-08-19T13:26:18;9.27;;;6.97;;
36663;SDS011;53333;51.976;20.144;2022-08-19T13:28:54;13.18;;;9.40;;
36663;SDS011;53333;51.976;20.144;2022-08-19T13:31:45;13.00;;;7.32;;
36663;SDS011;53333;51.976;20.144;2022-08-19T13:34:36;10.07;;;6.97;;
36663;SDS011;53333;51.976;20.144;2022-08-19T13:37:11;8.15;;;6.93;;
36663;SDS011;53333;51.976;20.144;2022-08-19T13:39:44;11.02;;;7.55;;
36663;SDS011;53333;51.976;20.144;2022-08-19T13:42:19;7.95;;;6.88;;
36663;SDS011;53333;51.976;20.144;2022-08-19T13:44:54;9.60;;;7.05;;
36663;SDS011;53333;51.976;20.144;2022-08-19T13:47:28;8.30;;;6.88;;
36663;SDS011;53333;51.976;20.144;2022-08-19T13:50:02;11.27;;;7.00;;
36663;SDS011;53333;51.976;20.144;2022-08-19T13:52:36;8.70;;;6.63;;
36663;SDS011;53333;51.976;20.144;2022-08-19T13:55:10;9.05;;;6.60;;
36663;SDS011;53333;51.976;20.144;2022-08-19T13:57:53;10.70;;;7.35;;
36663;SDS011;53333;51.976;20.144;2022-08-19T14:00:31;12.20;;;7.90;;
36663;SDS011;53333;51.976;20.144;2022-08-19T14:03:07;12.98;;;8.98;;
36663;SDS011;53333;51.976;20.144;2022-08-19T14:05:40;12.80;;;8.07;;
36663;SDS011;53333;51.976;20.144;2022-08-19T14:08:14;11.43;;;8.65;;
36663;SDS011;53333;51.976;20.144;2022-08-19T14:10:48;14.93;;;10.57;;
36663;SDS011;53333;51.976;20.144;2022-08-19T14:13:22;10.48;;;7.28;;
36663;SDS011;53333;51.976;20.144;2022-08-19T14:15:58;18.00;;;7.65;;
36663;SDS011;53333;51.976;20.144;2022-08-19T14:18:31;7.78;;;6.88;;
36663;SDS011;53333;51.976;20.144;2022-08-19T14:21:05;8.20;;;6.70;;
36663;SDS011;53333;51.976;20.144;2022-08-19T14:23:39;9.00;;;7.40;;
36663;SDS011;53333;51.976;20.144;2022-08-19T14:26:15;11.27;;;6.65;;
36663;SDS011;53333;51.976;20.144;2022-08-19T14:28:50;7.50;;;6.70;;
36663;SDS011;53333;51.976;20.144;2022-08-19T14:31:25;8.98;;;7.28;;
36663;SDS011;53333;51.976;20.144;2022-08-19T14:34:01;7.97;;;6.50;;
36663;SDS011;53333;51.976;20.144;2022-08-19T14:36:35;8.70;;;6.63;;
36663;SDS011;53333;51.976;20.144;2022-08-19T14:39:10;9.70;;;7.00;;
36663;SDS011;53333;51.976;20.144;2022-08-19T14:41:43;10.73;;;8.05;;
36663;SDS011;53333;51.976;20.144;2022-08-19T14:44:17;8.80;;;7.47;;
36663;SDS011;53333;51.976;20.144;2022-08-19T14:46:52;8.00;;;6.47;;
36663;SDS011;53333;51.976;20.144;2022-08-19T14:49:26;8.65;;;6.28;;
36663;SDS011;53333;51.976;20.144;2022-08-19T14:52:12;6.88;;;6.07;;
36663;SDS011;53333;51.976;20.144;2022-08-19T14:54:46;9.50;;;6.25;;
36663;SDS011;53333;51.976;20.144;2022-08-19T14:57:20;10.77;;;6.50;;
36663;SDS011;53333;51.976;20.144;2022-08-19T14:59:54;9.77;;;7.07;;
36663;SDS011;53333;51.976;20.144;2022-08-19T15:02:30;9.93;;;6.75;;
36663;SDS011;53333;51.976;20.144;2022-08-19T15:05:06;7.97;;;6.55;;
36663;SDS011;53333;51.976;20.144;2022-08-19T15:07:42;12.10;;;6.90;;
36663;SDS011;53333;51.976;20.144;2022-08-19T15:10:16;8.25;;;7.15;;
36663;SDS011;53333;51.976;20.144;2022-08-19T15:12:50;14.98;;;9.77;;
36663;SDS011;53333;51.976;20.144;2022-08-19T15:15:25;9.23;;;6.57;;
36663;SDS011;53333;51.976;20.144;2022-08-19T15:18:00;7.20;;;6.50;;
36663;SDS011;53333;51.976;20.144;2022-08-19T15:20:35;6.85;;;6.15;;